Time;durP1;ratioP1;P1;durP2;ratioP2;P2;SDS_P1;SDS_P2;PMS_P1;PMS_P2;Temp;Humidity;BMP_temperature;BMP_pressure;BME280_temperature;BME280_humidity;BME280_pressure;Samples;Min_cycle;Max_cycle;Signal;HPM_P1;HPM_P2
2021/05/17 00:02:15;;;;;;;1.73;1.53;;;10.30;99.90;;;;;;4340899;33;20186;-64
2021/05/17 00:04:42;;;;;;;2.97;1.63;;;10.40;99.90;;;;;;4338132;33;20165;-64
2021/05/17 00:07:11;;;;;;;1.80;1.70;;;10.30;99.90;;;;;;4345409;33;20164;-65
2021/05/17 00:09:37;;;;;;;2.00;1.40;;;10.30;99.90;;;;;;4342590;33;20179;-67
2021/05/17 00:12:07;;;;;;;1.50;1.40;;;10.40;99.90;;;;;;4344561;33;20159;-65
2021/05/17 00:14:34;;;;;;;1.83;1.47;;;10.40;99.90;;;;;;4342530;33;20244;-65
2021/05/17 00:17:02;;;;;;;1.87;1.40;;;10.40;99.90;;;;;;4338779;33;20189;-67
2021/05/17 00:19:28;;;;;;;2.03;1.83;;;10.40;99.90;;;;;;4342544;33;20167;-64
2021/05/17 00:21:58;;;;;;;1.70;1.40;;;10.40;99.90;;;;;;4345018;33;20167;-64
2021/05/17 00:24:27;;;;;;;2.87;1.53;;;10.40;99.90;;;;;;4341585;33;20192;-65
2021/05/17 00:26:54;;;;;;;1.77;1.67;;;10.30;99.90;;;;;;4334635;33;20745;-67
2021/05/17 00:29:22;;;;;;;1.77;1.60;;;10.40;99.90;;;;;;4337551;32;20176;-66
2021/05/17 00:31:48;;;;;;;1.70;1.60;;;10.40;99.90;;;;;;4345798;33;20180;-63
2021/05/17 00:34:16;;;;;;;2.17;1.37;;;10.50;99.90;;;;;;4336849;33;20768;-66
2021/05/17 00:36:42;;;;;;;1.70;1.60;;;10.50;99.90;;;;;;4352511;32;20212;-65
2021/05/17 00:39:10;;;;;;;1.73;1.53;;;10.40;99.90;;;;;;4346142;32;20607;-64
2021/05/17 00:41:38;;;;;;;1.60;1.50;;;10.40;99.90;;;;;;4337573;33;20162;-66
2021/05/17 00:44:05;;;;;;;1.63;1.00;;;10.40;99.90;;;;;;4346854;33;20256;-67
2021/05/17 00:46:34;;;;;;;2.27;1.53;;;10.40;99.90;;;;;;4344117;33;20185;-63
2021/05/17 00:49:00;;;;;;;2.17;1.53;;;10.50;99.90;;;;;;4341547;33;20579;-66
2021/05/17 00:51:27;;;;;;;1.40;1.20;;;10.40;99.90;;;;;;4334299;33;20650;-66
2021/05/17 00:53:54;;;;;;;2.07;1.23;;;10.40;99.90;;;;;;4344362;33;20230;-65
2021/05/17 00:56:22;;;;;;;1.40;1.07;;;10.40;99.90;;;;;;4342689;33;20548;-64
2021/05/17 00:58:48;;;;;;;5.07;1.70;;;10.40;99.90;;;;;;4344491;33;20189;-65
2021/05/17 01:01:16;;;;;;;2.73;1.20;;;10.40;99.90;;;;;;4339537;33;20160;-65
2021/05/17 01:03:44;;;;;;;2.60;1.83;;;10.40;99.90;;;;;;4345477;33;20191;-65
2021/05/17 01:06:10;;;;;;;2.43;1.60;;;10.40;99.90;;;;;;4338971;33;20216;-65
2021/05/17 01:08:43;;;;;;;1.30;1.20;;;10.50;99.90;;;;;;4340356;33;20162;-64
2021/05/17 01:11:12;;;;;;;3.13;1.57;;;10.50;99.90;;;;;;4343999;33;20208;-67
2021/05/17 01:13:41;;;;;;;1.67;1.50;;;10.60;99.90;;;;;;4343005;33;20188;-65
2021/05/17 01:16:08;;;;;;;1.80;1.60;;;10.60;99.90;;;;;;4341134;33;20205;-64
2021/05/17 01:18:35;;;;;;;2.67;1.70;;;10.60;99.90;;;;;;4342507;33;20221;-67
2021/05/17 01:21:03;;;;;;;2.40;1.80;;;10.60;99.90;;;;;;4332055;33;20580;-66
2021/05/17 01:23:44;;;;;;;4.27;2.13;;;10.50;99.90;;;;;;4344849;33;20154;-65
2021/05/17 01:26:15;;;;;;;2.10;1.90;;;10.50;99.90;;;;;;4341936;33;20159;-66
2021/05/17 01:28:43;;;;;;;4.03;2.23;;;10.60;99.90;;;;;;4337775;33;20158;-65
2021/05/17 01:31:11;;;;;;;4.63;2.33;;;10.60;99.90;;;;;;4339254;33;20563;-66
2021/05/17 01:33:39;;;;;;;2.67;2.20;;;10.60;99.90;;;;;;4343051;33;20169;-66
2021/05/17 01:36:08;;;;;;;3.13;2.83;;;10.60;99.90;;;;;;4344590;33;20255;-67
2021/05/17 01:38:40;;;;;;;2.67;2.43;;;10.60;99.90;;;;;;4339461;33;20161;-63
2021/05/17 01:41:09;;;;;;;9.07;3.33;;;10.70;99.90;;;;;;4341524;33;20191;-64
2021/05/17 01:43:40;;;;;;;6.27;3.33;;;10.70;99.90;;;;;;4341430;33;20161;-65
2021/05/17 01:46:14;;;;;;;4.37;3.00;;;10.60;99.90;;;;;;4337281;33;20220;-64
2021/05/17 01:48:42;;;;;;;4.13;3.60;;;10.60;99.90;;;;;;4339177;33;20173;-66
2021/05/17 01:51:10;;;;;;;6.87;3.90;;;10.50;99.90;;;;;;4333698;33;20205;-65
2021/05/17 01:53:38;;;;;;;5.93;3.73;;;10.50;99.90;;;;;;4337634;33;20294;-65
2021/05/17 01:56:10;;;;;;;6.50;4.27;;;10.50;99.90;;;;;;4333086;33;20228;-63
2021/05/17 01:58:37;;;;;;;6.43;4.33;;;10.50;99.90;;;;;;4337024;33;20160;-65
2021/05/17 02:01:08;;;;;;;6.67;3.87;;;10.50;99.90;;;;;;4340228;33;20494;-66
2021/05/17 02:03:36;;;;;;;5.50;4.10;;;10.60;99.90;;;;;;4343358;33;20220;-64
2021/05/17 02:06:06;;;;;;;6.50;4.43;;;10.60;99.90;;;;;;4343643;33;20221;-64
2021/05/17 02:08:33;;;;;;;5.37;4.23;;;10.60;99.90;;;;;;4344923;33;20164;-65
2021/05/17 02:11:01;;;;;;;6.53;5.40;;;10.60;99.90;;;;;;4344879;33;20215;-64
2021/05/17 02:13:28;;;;;;;8.07;5.60;;;10.70;99.90;;;;;;4335422;33;20552;-65
2021/05/17 02:15:55;;;;;;;8.60;5.17;;;10.60;99.90;;;;;;4342872;33;20177;-66
2021/05/17 02:18:22;;;;;;;8.60;4.90;;;10.60;99.90;;;;;;4339871;33;20168;-66
2021/05/17 02:20:50;;;;;;;7.10;5.30;;;10.60;99.90;;;;;;4338744;33;20220;-65
2021/05/17 02:23:18;;;;;;;10.60;5.77;;;10.60;99.90;;;;;;4343437;33;20167;-65
2021/05/17 02:25:46;;;;;;;7.87;6.50;;;10.60;99.90;;;;;;4331273;33;20161;-65
2021/05/17 02:28:14;;;;;;;6.83;6.13;;;10.60;99.90;;;;;;4333402;33;20191;-64
2021/05/17 02:30:44;;;;;;;8.23;6.00;;;10.60;99.90;;;;;;4341984;33;20240;-66
2021/05/17 02:33:12;;;;;;;9.27;5.90;;;10.60;99.90;;;;;;4338350;33;20216;-64
2021/05/17 02:35:40;;;;;;;7.67;6.03;;;10.60;99.90;;;;;;4342559;33;20663;-65
2021/05/17 02:38:09;;;;;;;7.80;6.90;;;10.60;99.90;;;;;;4342689;33;20488;-65
2021/05/17 02:40:38;;;;;;;10.13;6.93;;;10.60;99.90;;;;;;4338921;33;20614;-65
2021/05/17 02:43:10;;;;;;;9.23;7.10;;;10.60;99.90;;;;;;4344258;33;20201;-64
2021/05/17 02:45:40;;;;;;;9.60;7.53;;;10.60;99.90;;;;;;4343287;33;20527;-65
2021/05/17 02:48:10;;;;;;;10.60;7.47;;;10.60;99.90;;;;;;4344916;33;20589;-63
2021/05/17 02:50:38;;;;;;;10.03;7.57;;;10.60;99.90;;;;;;4342514;33;20169;-66
2021/05/17 02:53:27;;;;;;;10.47;8.33;;;10.60;99.90;;;;;;4341509;33;20192;-64
2021/05/17 02:55:55;;;;;;;9.87;7.33;;;10.60;99.90;;;;;;4336713;33;20235;-64
2021/05/17 02:58:23;;;;;;;13.77;8.67;;;10.60;99.90;;;;;;4329494;33;20303;-64
2021/05/17 03:01:16;;;;;;;12.50;8.33;;;10.60;99.90;;;;;;4338244;33;20253;-66
2021/05/17 03:03:53;;;;;;;13.67;9.83;;;10.60;99.90;;;;;;4302488;33;20230;-64
2021/05/17 03:06:31;;;;;;;11.83;8.60;;;10.60;99.90;;;;;;4301545;33;20186;-65
2021/05/17 03:09:07;;;;;;;10.70;8.10;;;10.70;99.90;;;;;;4303263;33;20271;-64
2021/05/17 03:11:36;;;;;;;10.47;8.07;;;10.60;99.90;;;;;;4299694;33;20212;-65
2021/05/17 03:14:15;;;;;;;8.77;7.77;;;10.80;99.90;;;;;;4302035;33;20583;-64
2021/05/17 03:16:54;;;;;;;11.17;8.57;;;10.70;99.90;;;;;;4304321;33;20180;-66
2021/05/17 03:19:21;;;;;;;11.17;8.30;;;10.70;99.90;;;;;;4308473;33;20522;-66
2021/05/17 03:21:49;;;;;;;10.53;8.00;;;10.60;99.90;;;;;;4312227;33;20185;-65
2021/05/17 03:24:16;;;;;;;12.87;8.70;;;10.60;99.90;;;;;;4301856;33;20264;-67
2021/05/17 03:26:43;;;;;;;11.37;8.33;;;10.60;99.90;;;;;;4306323;33;20280;-65
2021/05/17 03:29:24;;;;;;;12.20;8.93;;;10.60;99.90;;;;;;4297064;33;20215;-65
2021/05/17 03:32:02;;;;;;;10.57;8.73;;;10.70;99.90;;;;;;4298210;33;20923;-65
2021/05/17 03:34:28;;;;;;;10.67;7.70;;;10.60;99.90;;;;;;4311981;33;20231;-65
2021/05/17 03:36:55;;;;;;;11.87;8.73;;;10.60;99.90;;;;;;4337454;33;20171;-65
2021/05/17 03:39:21;;;;;;;13.30;8.03;;;10.60;99.90;;;;;;4344702;33;20160;-65
2021/05/17 03:41:47;;;;;;;12.67;8.47;;;10.60;99.90;;;;;;4332655;33;20204;-67
2021/05/17 03:44:14;;;;;;;9.17;8.00;;;10.70;99.90;;;;;;4330462;33;20539;-64
2021/05/17 03:46:40;;;;;;;9.33;7.73;;;10.70;99.90;;;;;;4344560;33;20199;-66
2021/05/17 03:49:07;;;;;;;10.17;7.13;;;10.70;99.90;;;;;;4340845;33;20676;-64
2021/05/17 03:51:33;;;;;;;8.77;6.83;;;10.80;99.90;;;;;;4338123;33;20228;-65
2021/05/17 03:54:00;;;;;;;9.57;6.90;;;10.80;99.90;;;;;;4336451;33;20232;-64
2021/05/17 03:56:26;;;;;;;9.50;6.43;;;10.80;99.90;;;;;;4343647;33;20178;-64
2021/05/17 03:58:52;;;;;;;10.67;7.33;;;10.90;99.90;;;;;;4341696;33;20528;-67
2021/05/17 04:01:19;;;;;;;10.97;7.03;;;10.90;99.90;;;;;;4342083;33;20169;-63
2021/05/17 04:03:46;;;;;;;8.83;5.97;;;10.90;99.90;;;;;;4345628;33;20211;-63
2021/05/17 04:06:18;;;;;;;9.93;7.27;;;10.90;99.90;;;;;;4339268;33;20157;-64
2021/05/17 04:14:16;;;;;;;8.83;6.83;;;11.00;99.90;;;;;;4346261;33;20230;-66
2021/05/17 04:16:42;;;;;;;7.77;6.57;;;11.00;99.90;;;;;;4344670;33;20220;-64
2021/05/17 04:19:12;;;;;;;8.60;5.80;;;11.00;99.90;;;;;;4342282;33;20190;-64
2021/05/17 04:21:39;;;;;;;11.87;6.60;;;11.10;99.90;;;;;;4342397;33;20168;-64
2021/05/17 04:24:08;;;;;;;7.73;6.13;;;11.20;99.90;;;;;;4341704;33;20205;-65
2021/05/17 04:26:46;;;;;;;7.63;6.13;;;11.30;99.90;;;;;;4339652;33;20193;-65
2021/05/17 04:29:12;;;;;;;11.70;6.43;;;11.30;99.90;;;;;;4338511;33;20157;-65
2021/05/17 04:31:39;;;;;;;8.63;6.30;;;11.10;99.90;;;;;;4343931;33;20174;-64
2021/05/17 04:34:05;;;;;;;9.00;6.70;;;11.00;99.90;;;;;;4345110;33;20160;-62
2021/05/17 04:36:32;;;;;;;9.03;7.27;;;10.90;99.90;;;;;;4339700;33;20588;-63
2021/05/17 04:39:00;;;;;;;12.33;7.93;;;10.80;99.90;;;;;;4340032;33;20225;-63
2021/05/17 04:41:26;;;;;;;11.97;8.00;;;10.70;99.90;;;;;;4344910;33;20156;-62
2021/05/17 04:43:52;;;;;;;11.30;8.00;;;10.70;99.90;;;;;;4345198;33;20171;-63
2021/05/17 04:46:19;;;;;;;14.13;8.53;;;10.70;99.90;;;;;;4337783;33;20191;-64
2021/05/17 04:48:49;;;;;;;11.40;9.13;;;10.60;99.90;;;;;;4342813;33;20219;-65
2021/05/17 04:51:18;;;;;;;15.07;9.57;;;10.70;99.90;;;;;;4353966;32;20163;-64
2021/05/17 04:53:44;;;;;;;14.37;9.73;;;10.60;99.90;;;;;;4347811;33;20548;-64
2021/05/17 04:56:11;;;;;;;11.03;9.20;;;10.60;99.90;;;;;;4337246;33;20296;-64
2021/05/17 04:58:38;;;;;;;12.57;9.83;;;10.60;99.90;;;;;;4344613;33;20166;-64
2021/05/17 05:01:04;;;;;;;19.57;11.10;;;10.70;99.90;;;;;;4343405;33;20210;-64
2021/05/17 05:03:31;;;;;;;15.40;10.00;;;10.70;99.90;;;;;;4343058;33;20266;-64
2021/05/17 05:06:00;;;;;;;13.60;10.13;;;10.60;99.90;;;;;;4343768;33;20212;-64
2021/05/17 05:08:26;;;;;;;15.33;10.50;;;10.70;99.90;;;;;;4340979;33;20165;-66
2021/05/17 05:10:53;;;;;;;15.37;10.93;;;10.70;99.90;;;;;;4341277;33;20216;-68
2021/05/17 05:13:20;;;;;;;13.83;10.37;;;10.80;99.90;;;;;;4337577;33;20185;-68
2021/05/17 05:15:51;;;;;;;18.17;10.37;;;10.80;99.90;;;;;;4335778;33;20240;-64
2021/05/17 05:18:17;;;;;;;18.47;10.33;;;10.80;99.90;;;;;;4340915;33;20158;-66
2021/05/17 05:20:48;;;;;;;15.83;10.03;;;10.90;99.90;;;;;;4333314;33;20188;-68
2021/05/17 05:23:16;;;;;;;15.57;9.50;;;10.80;99.90;;;;;;4335326;33;20241;-64
2021/05/17 05:28:46;;;;;;;20.23;10.70;;;10.90;99.90;;;;;;4314855;33;20256;-64
2021/05/17 05:31:23;;;;;;;22.47;10.90;;;10.90;99.90;;;;;;4325029;33;20216;-63
2021/05/17 05:33:51;;;;;;;16.13;9.93;;;11.00;99.90;;;;;;4330496;33;20622;-64
2021/05/17 05:36:18;;;;;;;16.83;9.77;;;11.00;99.90;;;;;;4330355;33;20650;-64
2021/05/17 05:38:44;;;;;;;16.63;9.90;;;11.10;99.90;;;;;;4325431;33;20250;-64
2021/05/17 05:41:10;;;;;;;21.87;11.10;;;11.00;99.90;;;;;;4321331;33;20252;-66
2021/05/17 05:43:40;;;;;;;17.17;9.07;;;11.00;99.90;;;;;;4324984;33;20172;-68
2021/05/17 05:46:09;;;;;;;19.23;9.57;;;11.10;99.90;;;;;;4328866;33;20188;-66
2021/05/17 05:48:47;;;;;;;22.63;10.40;;;11.20;99.90;;;;;;4327237;33;20186;-66
2021/05/17 05:51:20;;;;;;;15.23;9.47;;;11.20;99.90;;;;;;4327563;33;20176;-65
2021/05/17 05:53:49;;;;;;;18.20;10.07;;;11.20;99.90;;;;;;4326364;33;20183;-67
2021/05/17 05:56:22;;;;;;;18.93;9.70;;;11.10;99.90;;;;;;4323703;33;20696;-66
2021/05/17 05:58:49;;;;;;;16.20;8.90;;;11.20;99.90;;;;;;4316607;33;20166;-66
2021/05/17 06:01:17;;;;;;;20.33;10.60;;;11.30;99.90;;;;;;4315815;33;20169;-67
2021/05/17 06:03:46;;;;;;;19.67;12.13;;;11.50;99.90;;;;;;4316924;33;20221;-67
2021/05/17 06:06:12;;;;;;;22.07;11.80;;;11.60;99.90;;;;;;4325589;33;20211;-65
2021/05/17 06:08:40;;;;;;;15.67;11.03;;;11.60;99.90;;;;;;4331677;33;20657;-66
2021/05/17 06:11:07;;;;;;;17.73;11.37;;;11.50;99.90;;;;;;4336642;33;20178;-67
2021/05/17 06:13:35;;;;;;;17.27;10.97;;;11.40;99.90;;;;;;4335785;33;20535;-67
2021/05/17 06:16:03;;;;;;;15.67;11.23;;;11.30;99.90;;;;;;4335803;33;20159;-68
2021/05/17 06:18:30;;;;;;;14.87;10.00;;;11.10;99.90;;;;;;4336677;33;20216;-64
2021/05/17 06:20:57;;;;;;;15.47;11.20;;;11.10;99.90;;;;;;4335664;33;20190;-65
2021/05/17 06:23:24;;;;;;;17.40;10.73;;;11.10;99.90;;;;;;4334727;33;20190;-68
2021/05/17 06:25:51;;;;;;;18.37;11.77;;;11.10;99.90;;;;;;4336255;33;20628;-66
2021/05/17 06:28:20;;;;;;;16.20;10.53;;;11.00;99.90;;;;;;4331252;33;20277;-64
2021/05/17 06:30:50;;;;;;;16.77;10.80;;;11.00;99.90;;;;;;4334140;33;20629;-64
2021/05/17 06:33:19;;;;;;;17.73;11.67;;;11.00;99.90;;;;;;4329935;33;20184;-63
2021/05/17 06:35:46;;;;;;;16.00;10.23;;;11.00;99.90;;;;;;4336330;33;20254;-64
2021/05/17 06:38:13;;;;;;;13.40;9.73;;;11.00;99.90;;;;;;4334505;33;20159;-64
2021/05/17 06:40:40;;;;;;;14.40;10.90;;;11.10;99.90;;;;;;4333768;33;20660;-65
2021/05/17 06:43:07;;;;;;;17.97;10.83;;;11.10;99.90;;;;;;4335721;33;20170;-65
2021/05/17 06:45:36;;;;;;;15.87;10.30;;;11.20;99.90;;;;;;4334050;33;20184;-65
2021/05/17 06:48:03;;;;;;;17.17;11.77;;;11.20;99.90;;;;;;4308168;33;20268;-63
2021/05/17 06:50:32;;;;;;;17.90;10.50;;;11.30;99.90;;;;;;4330634;33;20510;-67
2021/05/17 06:52:58;;;;;;;16.33;11.03;;;11.40;99.90;;;;;;4329060;33;20224;-64
2021/05/17 06:55:30;;;;;;;15.67;11.07;;;11.50;99.90;;;;;;4332996;33;20231;-66
2021/05/17 06:58:06;;;;;;;20.77;13.57;;;11.60;99.90;;;;;;4342470;33;20167;-66
2021/05/17 07:00:33;;;;;;;16.23;12.87;;;11.70;99.90;;;;;;4341123;33;20212;-65
2021/05/17 07:03:01;;;;;;;18.43;13.37;;;11.80;99.90;;;;;;4338755;33;20181;-65
2021/05/17 07:05:28;;;;;;;15.73;11.50;;;11.90;99.90;;;;;;4342396;33;20464;-64
2021/05/17 07:13:25;;;;;;;14.20;8.97;;;11.90;99.90;;;;;;4316987;33;20673;-65
2021/05/17 07:15:52;;;;;;;13.80;9.10;;;11.90;99.90;;;;;;4323685;33;20278;-66
2021/05/17 07:18:18;;;;;;;14.53;8.57;;;11.80;99.90;;;;;;4326590;33;20352;-66
2021/05/17 07:23:40;;;;;;;13.30;8.90;;;11.80;99.90;;;;;;4328010;33;20212;-65
2021/05/17 07:26:12;;;;;;;17.90;8.80;;;11.80;99.90;;;;;;4329448;33;20651;-64
2021/05/17 07:28:39;;;;;;;17.73;7.90;;;11.90;99.90;;;;;;4331793;33;20174;-64
2021/05/17 07:31:08;;;;;;;13.23;7.70;;;12.00;99.90;;;;;;4333697;33;20185;-66
2021/05/17 07:33:36;;;;;;;15.03;7.73;;;12.00;99.90;;;;;;4328614;33;20510;-65
2021/05/17 07:36:09;;;;;;;14.80;9.10;;;12.00;99.90;;;;;;4329103;33;20195;-65
2021/05/17 07:38:40;;;;;;;16.43;8.13;;;12.00;99.90;;;;;;4329826;33;20181;-64
2021/05/17 07:41:06;;;;;;;11.77;8.70;;;12.00;99.90;;;;;;4328321;33;20624;-65
2021/05/17 07:43:33;;;;;;;16.77;8.80;;;12.00;99.90;;;;;;4330387;33;20168;-65
2021/05/17 07:45:59;;;;;;;16.10;8.63;;;11.90;99.90;;;;;;4333442;33;20207;-65
2021/05/17 07:48:25;;;;;;;10.37;8.00;;;11.90;99.90;;;;;;4347522;33;20192;-65
2021/05/17 07:50:52;;;;;;;14.43;9.30;;;11.90;99.90;;;;;;4347253;33;20177;-66
2021/05/17 07:53:19;;;;;;;11.83;8.80;;;11.90;99.90;;;;;;4351871;33;20240;-65
2021/05/17 07:55:50;;;;;;;15.30;8.77;;;11.90;99.90;;;;;;4345829;33;20598;-65
2021/05/17 07:58:17;;;;;;;16.00;9.23;;;12.00;99.90;;;;;;4340528;33;20249;-65
2021/05/17 08:00:44;;;;;;;14.57;9.23;;;12.10;99.90;;;;;;4332988;33;20165;-66
2021/05/17 08:03:13;;;;;;;13.37;8.83;;;12.10;99.90;;;;;;4332828;33;22148;-66
2021/05/17 08:05:39;;;;;;;12.00;8.37;;;12.20;99.90;;;;;;4332500;33;20169;-66
2021/05/17 08:08:09;;;;;;;10.70;8.90;;;12.10;99.90;;;;;;4331548;33;20180;-66
2021/05/17 08:10:35;;;;;;;13.90;10.20;;;12.10;99.90;;;;;;4336650;33;20214;-67
2021/05/17 08:13:05;;;;;;;11.37;9.33;;;12.10;99.90;;;;;;4332443;33;20168;-65
2021/05/17 08:15:34;;;;;;;15.60;9.87;;;12.30;99.90;;;;;;4332065;33;20162;-66
2021/05/17 08:18:03;;;;;;;12.30;8.80;;;12.40;99.90;;;;;;4332133;33;20243;-64
2021/05/17 08:20:30;;;;;;;16.00;10.43;;;12.50;99.90;;;;;;4329796;33;20217;-65
2021/05/17 08:22:57;;;;;;;14.03;9.37;;;12.60;99.90;;;;;;4332229;33;20187;-67
2021/05/17 08:25:24;;;;;;;13.63;9.67;;;12.70;99.90;;;;;;4331910;33;20601;-67
2021/05/17 08:27:51;;;;;;;12.93;10.03;;;12.70;99.90;;;;;;4333252;33;20715;-64
2021/05/17 08:30:20;;;;;;;12.47;9.20;;;12.70;99.90;;;;;;4329732;33;20228;-65
2021/05/17 08:32:46;;;;;;;11.77;8.77;;;13.00;99.90;;;;;;4331358;33;20184;-64
2021/05/17 08:35:13;;;;;;;10.93;8.87;;;13.60;99.90;;;;;;4332527;33;20176;-65
2021/05/17 08:37:39;;;;;;;9.53;7.30;;;14.40;99.90;;;;;;4331524;33;20510;-66
2021/05/17 08:40:10;;;;;;;9.20;8.27;;;15.50;99.90;;;;;;4330777;33;20185;-64
2021/05/17 08:42:36;;;;;;;7.67;6.87;;;16.40;99.90;;;;;;4331229;33;20595;-67
2021/05/17 08:45:04;;;;;;;8.93;7.10;;;16.50;99.90;;;;;;4331654;33;20161;-66
2021/05/17 08:47:35;;;;;;;9.90;8.03;;;16.20;99.90;;;;;;4332033;33;20578;-66
2021/05/17 08:50:01;;;;;;;7.83;7.00;;;16.00;99.90;;;;;;4332850;33;20212;-66
2021/05/17 08:52:29;;;;;;;10.50;6.60;;;15.50;99.90;;;;;;4327936;33;20553;-64
2021/05/17 08:54:55;;;;;;;8.03;6.33;;;15.40;99.90;;;;;;4330559;33;20161;-66
2021/05/17 08:57:21;;;;;;;10.50;6.67;;;15.80;99.90;;;;;;4330211;33;20235;-64
2021/05/17 08:59:48;;;;;;;7.60;6.77;;;15.70;99.90;;;;;;4338007;33;20159;-62
2021/05/17 09:02:14;;;;;;;7.27;6.57;;;15.10;99.90;;;;;;4334056;33;20165;-64
2021/05/17 09:05:09;;;;;;;8.40;6.27;;;14.90;99.90;;;;;;4332206;33;20175;-64
2021/05/17 09:07:41;;;;;;;8.33;6.83;;;14.60;99.90;;;;;;4336681;33;20188;-62
2021/05/17 09:10:20;;;;;;;8.10;7.30;;;14.60;99.90;;;;;;4343885;33;20165;-63
2021/05/17 09:12:58;;;;;;;9.87;7.30;;;14.20;99.90;;;;;;4335530;33;20585;-64
2021/05/17 09:15:28;;;;;;;7.60;6.90;;;14.10;99.90;;;;;;4340374;33;20208;-63
2021/05/17 09:17:55;;;;;;;8.03;7.33;;;13.80;99.90;;;;;;4338580;33;20184;-64
2021/05/17 09:20:23;;;;;;;8.37;7.43;;;13.90;99.90;;;;;;4333784;33;20620;-65
2021/05/17 09:23:03;;;;;;;9.23;7.77;;;14.00;99.90;;;;;;4337460;33;20169;-64
2021/05/17 09:25:30;;;;;;;9.70;7.87;;;14.20;99.90;;;;;;4339197;33;20663;-64
2021/05/17 09:28:00;;;;;;;9.63;8.37;;;14.20;99.90;;;;;;4334006;33;20541;-63
2021/05/17 09:30:44;;;;;;;9.93;8.47;;;14.00;99.90;;;;;;4340047;33;20199;-66
2021/05/17 09:33:14;;;;;;;11.40;8.80;;;13.90;99.90;;;;;;4336976;33;20166;-62
2021/05/17 09:35:43;;;;;;;10.43;9.33;;;14.10;99.90;;;;;;4332317;33;20161;-64
2021/05/17 09:38:18;;;;;;;9.83;8.93;;;14.10;99.90;;;;;;4332027;33;20191;-65
2021/05/17 09:40:45;;;;;;;11.33;8.50;;;14.30;99.90;;;;;;4345416;33;20172;-61
2021/05/17 09:43:15;;;;;;;10.57;9.17;;;14.50;99.90;;;;;;4332483;33;20173;-65
2021/05/17 09:45:44;;;;;;;9.37;8.47;;;15.00;99.90;;;;;;4328768;33;20231;-61
2021/05/17 09:48:12;;;;;;;11.20;8.83;;;15.50;99.90;;;;;;4335936;33;20166;-64
2021/05/17 09:50:56;;;;;;;9.53;7.97;;;16.40;99.90;;;;;;4331505;33;20165;-62
2021/05/17 09:53:36;;;;;;;9.13;7.20;;;17.50;99.90;;;;;;4330820;33;20205;-61
2021/05/17 09:56:08;;;;;;;10.00;8.20;;;18.60;99.80;;;;;;4331462;33;20516;-63
2021/05/17 09:58:36;;;;;;;8.00;7.27;;;19.40;99.70;;;;;;4336970;33;20197;-65
2021/05/17 10:01:07;;;;;;;9.17;7.03;;;20.10;95.60;;;;;;4344605;33;20191;-65
2021/05/17 10:03:36;;;;;;;7.33;6.37;;;20.40;94.70;;;;;;4343334;33;20185;-66
2021/05/17 10:06:03;;;;;;;7.23;6.47;;;20.10;95.50;;;;;;4341467;33;20215;-63
2021/05/17 10:08:31;;;;;;;9.03;6.33;;;20.10;94.40;;;;;;4343740;33;20238;-64
2021/05/17 10:10:57;;;;;;;7.70;6.87;;;19.70;94.00;;;;;;4347198;32;20226;-62
2021/05/17 10:13:24;;;;;;;7.73;6.60;;;19.30;95.60;;;;;;4346307;33;20184;-66
2021/05/17 10:15:52;;;;;;;7.37;5.50;;;19.20;94.90;;;;;;4345398;33;20184;-65
2021/05/17 10:18:19;;;;;;;6.80;6.10;;;19.00;94.50;;;;;;4340459;33;20267;-64
2021/05/17 10:20:45;;;;;;;5.70;5.20;;;18.70;94.50;;;;;;4344898;33;20653;-64
2021/05/17 10:23:14;;;;;;;6.50;5.53;;;18.70;94.20;;;;;;4336796;33;20219;-63
2021/05/17 10:25:41;;;;;;;5.90;5.37;;;19.10;94.20;;;;;;4343367;33;20160;-65
2021/05/17 10:28:11;;;;;;;6.37;5.77;;;19.10;93.50;;;;;;4345038;33;20589;-65
2021/05/17 10:30:38;;;;;;;5.27;4.83;;;19.30;93.80;;;;;;4343525;33;20162;-65
2021/05/17 10:33:05;;;;;;;6.07;5.57;;;19.60;94.10;;;;;;4345103;33;20161;-64
2021/05/17 10:35:47;;;;;;;8.53;5.60;;;19.90;93.10;;;;;;4349295;33;20218;-64
2021/05/17 10:38:32;;;;;;;6.20;5.43;;;19.60;93.00;;;;;;4345834;33;20212;-65
2021/05/17 10:41:31;;;;;;;5.83;4.73;;;19.20;94.20;;;;;;4353696;33;20205;-67
2021/05/17 10:44:08;;;;;;;8.13;4.87;;;18.90;94.20;;;;;;4339994;33;20176;-66
2021/05/17 10:46:41;;;;;;;6.90;5.50;;;18.90;94.50;;;;;;4342320;33;20175;-64
2021/05/17 10:49:34;;;;;;;9.70;6.30;;;18.90;93.20;;;;;;4338183;33;20181;-64
2021/05/17 10:52:23;;;;;;;8.07;6.27;;;17.50;95.20;;;;;;4342322;33;20852;-66
2021/05/17 10:55:07;;;;;;;14.20;7.30;;;16.40;98.70;;;;;;4346949;33;20182;-64
2021/05/17 10:57:38;;;;;;;7.10;6.47;;;15.40;99.90;;;;;;4343744;33;20180;-63
2021/05/17 11:00:23;;;;;;;8.57;7.30;;;14.60;99.90;;;;;;4357670;32;20177;-65
2021/05/17 11:03:08;;;;;;;8.77;7.07;;;14.10;99.90;;;;;;4344331;33;20199;-64
2021/05/17 11:05:34;;;;;;;14.27;9.00;;;13.80;99.90;;;;;;4348872;33;20233;-67
2021/05/17 11:08:02;;;;;;;11.37;8.63;;;13.60;99.90;;;;;;4347464;33;20315;-67
2021/05/17 11:10:36;;;;;;;9.83;7.37;;;13.30;99.90;;;;;;4341291;33;20164;-65
2021/05/17 11:13:12;;;;;;;8.57;6.60;;;13.10;99.90;;;;;;4339738;33;20217;-64
2021/05/17 11:15:59;;;;;;;8.17;6.57;;;12.90;99.90;;;;;;4341424;33;20200;-66
2021/05/17 11:18:30;;;;;;;8.43;5.60;;;12.70;99.90;;;;;;4343788;33;20216;-64
2021/05/17 11:21:02;;;;;;;5.07;4.40;;;12.60;99.90;;;;;;4346018;33;20220;-65
2021/05/17 11:23:47;;;;;;;7.37;4.60;;;12.60;99.90;;;;;;4338597;33;20208;-65
2021/05/17 11:26:16;;;;;;;5.67;4.90;;;12.60;99.90;;;;;;4343328;33;20223;-67
2021/05/17 11:29:05;;;;;;;8.17;5.00;;;12.60;99.90;;;;;;4346295;33;20160;-66
2021/05/17 11:31:45;;;;;;;6.50;5.63;;;12.70;99.90;;;;;;4343207;33;20215;-64
2021/05/17 11:34:25;;;;;;;5.30;4.50;;;12.80;99.90;;;;;;4344881;33;20215;-68
2021/05/17 11:37:08;;;;;;;7.10;6.30;;;12.80;99.90;;;;;;4343900;33;20586;-65
2021/05/17 11:39:35;;;;;;;7.90;6.17;;;13.00;99.90;;;;;;4343287;33;20207;-67
2021/05/17 11:42:05;;;;;;;7.20;5.70;;;13.10;99.90;;;;;;4345125;32;20157;-67
2021/05/17 11:44:35;;;;;;;6.90;6.20;;;13.20;99.90;;;;;;4348304;32;20643;-67
2021/05/17 11:47:04;;;;;;;6.77;5.80;;;13.30;99.90;;;;;;4345494;33;20251;-63
2021/05/17 11:49:33;;;;;;;7.53;6.67;;;13.50;99.90;;;;;;4346247;33;20189;-66
2021/05/17 11:52:01;;;;;;;6.80;5.23;;;13.60;99.90;;;;;;4345929;33;20181;-67
2021/05/17 11:54:34;;;;;;;6.47;4.77;;;13.70;99.90;;;;;;4346576;32;20216;-67
2021/05/17 11:57:01;;;;;;;5.37;4.50;;;13.70;99.90;;;;;;4344016;33;20598;-65
2021/05/17 11:59:30;;;;;;;6.67;4.13;;;14.00;99.90;;;;;;4331827;33;20161;-65
2021/05/17 12:02:00;;;;;;;5.67;4.50;;;14.00;99.90;;;;;;4330892;33;20195;-67
2021/05/17 12:04:29;;;;;;;4.40;3.50;;;14.40;99.90;;;;;;4329170;33;20161;-66
2021/05/17 12:06:57;;;;;;;5.63;3.53;;;14.90;99.90;;;;;;4330371;33;20224;-65
2021/05/17 12:09:29;;;;;;;4.30;3.23;;;15.30;99.90;;;;;;4331582;33;20161;-63
2021/05/17 12:11:55;;;;;;;3.47;3.17;;;15.80;99.90;;;;;;4331604;33;20502;-65
2021/05/17 12:14:24;;;;;;;3.57;3.27;;;16.10;99.90;;;;;;4328956;33;20672;-68
2021/05/17 12:17:04;;;;;;;4.97;3.93;;;16.00;99.90;;;;;;4330401;33;20191;-64
2021/05/17 12:19:30;;;;;;;4.33;3.10;;;15.70;99.90;;;;;;4326799;33;20540;-67
2021/05/17 12:21:57;;;;;;;3.63;3.33;;;15.80;99.90;;;;;;4332593;33;20184;-66
2021/05/17 12:24:27;;;;;;;5.20;3.27;;;16.00;99.90;;;;;;4333660;33;20168;-68
2021/05/17 12:26:56;;;;;;;8.20;3.53;;;16.20;99.90;;;;;;4331449;33;20183;-63
2021/05/17 12:29:23;;;;;;;4.17;3.77;;;16.60;99.90;;;;;;4331494;33;20262;-66
2021/05/17 12:31:50;;;;;;;6.63;4.00;;;16.30;99.90;;;;;;4332127;33;20150;-63
2021/05/17 12:34:18;;;;;;;4.17;3.70;;;16.40;99.90;;;;;;4328752;33;20209;-65
2021/05/17 12:36:48;;;;;;;5.43;4.60;;;16.40;99.90;;;;;;4332469;33;20158;-65
2021/05/17 12:39:17;;;;;;;5.37;4.30;;;16.80;99.90;;;;;;4329506;33;20161;-63
2021/05/17 12:41:46;;;;;;;4.33;3.73;;;17.10;99.90;;;;;;4325747;33;20154;-65
2021/05/17 12:44:30;;;;;;;5.83;5.33;;;17.40;99.90;;;;;;4330806;33;20157;-64
2021/05/17 12:47:13;;;;;;;11.60;10.17;;;16.80;99.90;;;;;;4326779;33;20164;-66
2021/05/17 12:49:48;;;;;;;14.80;11.83;;;15.40;99.90;;;;;;4326435;33;20222;-64
2021/05/17 12:52:28;;;;;;;15.03;13.43;;;14.80;99.90;;;;;;4328005;33;20157;-64
2021/05/17 12:55:12;;;;;;;19.70;16.67;;;14.20;99.90;;;;;;4331362;33;20585;-66
2021/05/17 12:57:51;;;;;;;20.50;16.47;;;13.70;99.90;;;;;;4328154;33;20215;-65
2021/05/17 13:00:49;;;;;;;24.90;17.93;;;13.50;99.90;;;;;;4329324;33;20176;-64
2021/05/17 13:03:21;;;;;;;18.93;16.83;;;13.10;99.90;;;;;;4289598;33;20170;-64
2021/05/17 13:05:54;;;;;;;24.57;19.53;;;13.20;99.90;;;;;;4280122;33;20185;-65
2021/05/17 13:08:21;;;;;;;30.97;21.37;;;13.30;99.90;;;;;;4291403;33;20174;-65
2021/05/17 13:11:01;;;;;;;26.53;19.77;;;13.30;99.90;;;;;;4286036;33;20248;-65
2021/05/17 13:13:59;;;;;;;29.77;22.17;;;13.80;99.90;;;;;;4287041;33;20599;-65